Impacts METAR Board
IDs:

KSTL - St Louis/Lambert Int, MO, US

Updated at: 2000 UTC 25 Apr 2018
Potential Impact None Slight Moderate High
Time 25/08Z 25/09Z 25/10Z 25/11Z 25/12Z 25/13Z 25/14Z 25/15Z 25/16Z 25/17Z 25/18Z 25/19Z 25/20Z
Temp51 52 48 51 50 57 59 60 62 64 64 65 65
Dewpt41 39 39 39 41 45 45 46 48 51 53 53 53
Altim29.99 29.99 29.99 30.01 30.04 30.04 30.05 30.07 30.05 30.06 30.04 30.02 30.01
VIS10 10 10 10 10 10 10 10 10 10 10 10 10
CIG-- -- -- 250 250 250 250 200 200 200 200 31 31
CoverCLRCLRSCTBKNBKNBKNOVCOVCOVCOVCOVCOVCOVC
FltCatVFRVFRVFRVFRVFRVFRVFRVFRVFRVFRVFRVFRVFR
WX--------------------------
WDir23027025026027031035035020203603500
WSpd3 3 4 4 7 6 8 8 8 4 4 5 6
WGst-- -- -- -- -- -- -- -- -- -- -- -- --
Raw hourly METARs
KSTL 250751Z 23003KT 10SM CLR 11/05 A2999 RMK AO2 SLP151 T01060050
KSTL 250851Z 27003KT 10SM CLR 11/04 A2999 RMK AO2 SLP151 T01110039 55001
KSTL 250951Z 25004KT 10SM SCT250 09/04 A2999 RMK AO2 SLP152 T00890039
KSTL 251051Z 26004KT 10SM BKN250 11/04 A3001 RMK AO2 SLP158 T01060039
KSTL 251151Z 27007KT 10SM BKN250 10/05 A3004 RMK AO2 SLP168 T01000050 10133 20083 53016
KSTL 251251Z 31006KT 10SM FEW150 BKN250 14/07 A3004 RMK AO2 SLP169 T01390072
KSTL 251351Z 35008KT 10SM FEW150 OVC250 15/07 A3005 RMK AO2 SLP171 T01500072
KSTL 251451Z 35008KT 10SM FEW150 OVC200 16/08 A3007 RMK AO2 SLP178 T01560078 53009
KSTL 251551Z 02008KT 10SM FEW150 OVC200 17/09 A3005 RMK AO2 SLP173 T01670089
KSTL 251651Z 02004KT 10SM FEW060 FEW150 OVC200 18/11 A3006 RMK AO2 SLP176 T01780106
KSTL 251751Z 36004KT 10SM FEW060 FEW140 OVC200 18/12 A3004 RMK AO2 SLP168 T01780117 10183 20100 58009
KSTL 251851Z 35005KT 10SM BKN031 BKN140 OVC200 18/12 A3002 RMK AO2 SLP165 T01830117
KSTL 251951Z VRB06KT 10SM BKN031 OVC200 18/12 A3001 RMK AO2 SLP161 T01830117



Page loaded:  20:20 UTC  |   01:20 PM Pacific  |   02:20 PM Mountain  |   03:20 PM Central  |   04:20 PM Eastern

 

ADVISORIES

FORECASTS

FORECASTS

OBSERVATIONS

USER TOOLS

ABOUT US